sensor_id;sensor_type;location;lat;lon;timestamp;P1;durP1;ratioP1;P2;durP2;ratioP2
64598;SDS011;51008;51.504;11.548;2022-09-09T00:10:32;11.43;;;1.92;;
64598;SDS011;51008;51.504;11.548;2022-09-09T00:21:11;4.75;;;2.00;;
64598;SDS011;51008;51.504;11.548;2022-09-09T00:31:49;5.03;;;2.03;;
64598;SDS011;51008;51.504;11.548;2022-09-09T00:36:52;7.37;;;1.97;;
64598;SDS011;51008;51.504;11.548;2022-09-09T00:42:15;8.70;;;2.10;;
64598;SDS011;51008;51.504;11.548;2022-09-09T00:47:45;5.45;;;2.00;;
64598;SDS011;51008;51.504;11.548;2022-09-09T00:53:10;6.25;;;2.03;;
64598;SDS011;51008;51.504;11.548;2022-09-09T00:58:20;6.93;;;1.83;;
64598;SDS011;51008;51.504;11.548;2022-09-09T01:19:41;8.25;;;1.95;;
64598;SDS011;51008;51.504;11.548;2022-09-09T01:25:07;6.15;;;1.80;;
64598;SDS011;51008;51.504;11.548;2022-09-09T01:30:38;3.72;;;1.90;;
64598;SDS011;51008;51.504;11.548;2022-09-09T01:35:48;4.88;;;2.10;;
64598;SDS011;51008;51.504;11.548;2022-09-09T01:40:56;7.43;;;2.58;;
64598;SDS011;51008;51.504;11.548;2022-09-09T01:46:04;5.93;;;2.00;;
64598;SDS011;51008;51.504;11.548;2022-09-09T01:51:07;6.97;;;2.17;;
64598;SDS011;51008;51.504;11.548;2022-09-09T02:01:42;4.45;;;1.80;;
64598;SDS011;51008;51.504;11.548;2022-09-09T02:07:14;5.78;;;1.80;;
64598;SDS011;51008;51.504;11.548;2022-09-09T02:12:46;5.80;;;1.65;;
64598;SDS011;51008;51.504;11.548;2022-09-09T02:17:50;6.57;;;1.77;;
64598;SDS011;51008;51.504;11.548;2022-09-09T02:22:53;7.82;;;2.00;;
64598;SDS011;51008;51.504;11.548;2022-09-09T02:27:56;4.60;;;1.75;;
64598;SDS011;51008;51.504;11.548;2022-09-09T02:32:58;6.72;;;1.83;;
64598;SDS011;51008;51.504;11.548;2022-09-09T02:38:20;4.88;;;1.83;;
64598;SDS011;51008;51.504;11.548;2022-09-09T02:43:32;7.05;;;1.90;;
64598;SDS011;51008;51.504;11.548;2022-09-09T02:48:47;6.75;;;2.30;;
64598;SDS011;51008;51.504;11.548;2022-09-09T02:59:40;6.10;;;2.20;;
64598;SDS011;51008;51.504;11.548;2022-09-09T03:04:43;8.40;;;2.60;;
64598;SDS011;51008;51.504;11.548;2022-09-09T03:09:47;8.20;;;2.58;;
64598;SDS011;51008;51.504;11.548;2022-09-09T03:14:49;5.88;;;2.03;;
64598;SDS011;51008;51.504;11.548;2022-09-09T03:19:50;8.70;;;2.22;;
64598;SDS011;51008;51.504;11.548;2022-09-09T03:24:52;5.80;;;2.28;;
64598;SDS011;51008;51.504;11.548;2022-09-09T03:29:53;10.90;;;2.30;;
64598;SDS011;51008;51.504;11.548;2022-09-09T03:34:57;6.93;;;2.10;;
64598;SDS011;51008;51.504;11.548;2022-09-09T03:39:59;7.45;;;2.30;;
64598;SDS011;51008;51.504;11.548;2022-09-09T03:45:00;7.90;;;2.33;;
64598;SDS011;51008;51.504;11.548;2022-09-09T03:50:02;6.38;;;2.45;;
64598;SDS011;51008;51.504;11.548;2022-09-09T03:55:04;5.15;;;2.40;;
64598;SDS011;51008;51.504;11.548;2022-09-09T04:00:06;6.93;;;2.15;;
64598;SDS011;51008;51.504;11.548;2022-09-09T04:05:17;5.50;;;2.10;;
64598;SDS011;51008;51.504;11.548;2022-09-09T04:10:20;5.18;;;2.35;;
64598;SDS011;51008;51.504;11.548;2022-09-09T04:15:22;4.43;;;2.28;;
64598;SDS011;51008;51.504;11.548;2022-09-09T04:20:23;8.10;;;2.63;;
64598;SDS011;51008;51.504;11.548;2022-09-09T04:25:25;8.27;;;2.50;;
64598;SDS011;51008;51.504;11.548;2022-09-09T04:30:26;6.90;;;2.25;;
64598;SDS011;51008;51.504;11.548;2022-09-09T04:35:27;6.30;;;2.40;;
64598;SDS011;51008;51.504;11.548;2022-09-09T04:40:29;3.83;;;2.28;;
64598;SDS011;51008;51.504;11.548;2022-09-09T04:45:30;5.35;;;2.50;;
64598;SDS011;51008;51.504;11.548;2022-09-09T04:50:31;6.93;;;2.75;;
64598;SDS011;51008;51.504;11.548;2022-09-09T04:55:32;7.15;;;2.10;;
64598;SDS011;51008;51.504;11.548;2022-09-09T05:00:35;6.63;;;2.60;;
64598;SDS011;51008;51.504;11.548;2022-09-09T05:05:39;9.52;;;3.90;;
64598;SDS011;51008;51.504;11.548;2022-09-09T05:10:40;12.55;;;6.20;;
64598;SDS011;51008;51.504;11.548;2022-09-09T05:15:41;14.45;;;9.23;;
64598;SDS011;51008;51.504;11.548;2022-09-09T05:20:42;25.17;;;14.35;;
64598;SDS011;51008;51.504;11.548;2022-09-09T05:25:43;11.65;;;6.60;;
64598;SDS011;51008;51.504;11.548;2022-09-09T05:30:44;8.68;;;4.07;;
64598;SDS011;51008;51.504;11.548;2022-09-09T05:35:45;8.32;;;3.75;;
64598;SDS011;51008;51.504;11.548;2022-09-09T05:40:47;6.93;;;3.25;;
64598;SDS011;51008;51.504;11.548;2022-09-09T05:45:48;8.63;;;2.85;;
64598;SDS011;51008;51.504;11.548;2022-09-09T05:51:05;8.15;;;2.47;;
64598;SDS011;51008;51.504;11.548;2022-09-09T05:56:09;4.90;;;2.22;;
64598;SDS011;51008;51.504;11.548;2022-09-09T06:01:28;5.32;;;2.58;;
64598;SDS011;51008;51.504;11.548;2022-09-09T06:06:33;5.45;;;2.00;;
64598;SDS011;51008;51.504;11.548;2022-09-09T06:11:36;5.13;;;1.85;;
64598;SDS011;51008;51.504;11.548;2022-09-09T06:16:39;3.17;;;1.60;;
64598;SDS011;51008;51.504;11.548;2022-09-09T06:21:48;6.38;;;1.80;;
64598;SDS011;51008;51.504;11.548;2022-09-09T06:26:50;6.40;;;1.55;;
64598;SDS011;51008;51.504;11.548;2022-09-09T06:31:56;7.03;;;2.10;;
64598;SDS011;51008;51.504;11.548;2022-09-09T06:37:00;6.07;;;1.73;;
64598;SDS011;51008;51.504;11.548;2022-09-09T06:42:09;5.63;;;1.70;;
64598;SDS011;51008;51.504;11.548;2022-09-09T06:47:28;5.07;;;1.77;;
64598;SDS011;51008;51.504;11.548;2022-09-09T06:52:31;7.80;;;2.47;;
64598;SDS011;51008;51.504;11.548;2022-09-09T06:57:33;8.73;;;1.75;;
64598;SDS011;51008;51.504;11.548;2022-09-09T07:02:35;3.67;;;1.45;;
64598;SDS011;51008;51.504;11.548;2022-09-09T07:07:37;6.63;;;2.30;;
64598;SDS011;51008;51.504;11.548;2022-09-09T07:12:38;7.90;;;2.97;;
64598;SDS011;51008;51.504;11.548;2022-09-09T07:17:43;9.68;;;3.58;;
64598;SDS011;51008;51.504;11.548;2022-09-09T07:22:44;10.05;;;3.40;;
64598;SDS011;51008;51.504;11.548;2022-09-09T07:27:45;10.05;;;2.58;;
64598;SDS011;51008;51.504;11.548;2022-09-09T07:32:47;7.30;;;1.92;;
64598;SDS011;51008;51.504;11.548;2022-09-09T07:37:48;5.35;;;1.50;;
64598;SDS011;51008;51.504;11.548;2022-09-09T07:42:49;6.03;;;1.80;;
64598;SDS011;51008;51.504;11.548;2022-09-09T07:47:51;6.60;;;1.52;;
64598;SDS011;51008;51.504;11.548;2022-09-09T07:52:53;5.68;;;1.50;;
64598;SDS011;51008;51.504;11.548;2022-09-09T07:57:55;6.13;;;1.63;;
64598;SDS011;51008;51.504;11.548;2022-09-09T08:07:58;5.40;;;1.60;;
64598;SDS011;51008;51.504;11.548;2022-09-09T08:13:00;9.90;;;2.05;;
64598;SDS011;51008;51.504;11.548;2022-09-09T08:18:01;5.25;;;1.50;;
64598;SDS011;51008;51.504;11.548;2022-09-09T08:23:02;11.85;;;1.70;;
64598;SDS011;51008;51.504;11.548;2022-09-09T08:28:03;5.88;;;1.77;;
64598;SDS011;51008;51.504;11.548;2022-09-09T08:33:05;6.70;;;1.65;;
64598;SDS011;51008;51.504;11.548;2022-09-09T08:38:06;5.25;;;1.55;;
64598;SDS011;51008;51.504;11.548;2022-09-09T08:43:07;6.43;;;1.92;;
64598;SDS011;51008;51.504;11.548;2022-09-09T08:48:18;8.60;;;1.83;;
64598;SDS011;51008;51.504;11.548;2022-09-09T08:53:41;8.27;;;1.77;;
64598;SDS011;51008;51.504;11.548;2022-09-09T08:58:49;6.68;;;1.75;;
64598;SDS011;51008;51.504;11.548;2022-09-09T09:04:07;7.90;;;2.10;;
64598;SDS011;51008;51.504;11.548;2022-09-09T09:14:55;8.63;;;2.10;;
64598;SDS011;51008;51.504;11.548;2022-09-09T09:19:56;9.25;;;1.75;;
64598;SDS011;51008;51.504;11.548;2022-09-09T09:30:16;7.38;;;1.58;;
64598;SDS011;51008;51.504;11.548;2022-09-09T09:35:19;6.20;;;1.70;;
64598;SDS011;51008;51.504;11.548;2022-09-09T09:40:21;6.68;;;1.90;;
64598;SDS011;51008;51.504;11.548;2022-09-09T09:45:33;4.40;;;1.63;;
64598;SDS011;51008;51.504;11.548;2022-09-09T09:50:39;8.43;;;1.73;;
64598;SDS011;51008;51.504;11.548;2022-09-09T09:55:57;6.05;;;1.75;;
64598;SDS011;51008;51.504;11.548;2022-09-09T10:01:00;5.85;;;1.60;;
64598;SDS011;51008;51.504;11.548;2022-09-09T10:06:03;8.98;;;1.90;;
64598;SDS011;51008;51.504;11.548;2022-09-09T10:31:44;5.25;;;1.70;;
64598;SDS011;51008;51.504;11.548;2022-09-09T10:37:27;16.02;;;2.60;;
64598;SDS011;51008;51.504;11.548;2022-09-09T10:42:34;6.32;;;2.00;;
64598;SDS011;51008;51.504;11.548;2022-09-09T10:47:45;6.40;;;1.85;;
64598;SDS011;51008;51.504;11.548;2022-09-09T10:58:32;8.23;;;2.17;;
64598;SDS011;51008;51.504;11.548;2022-09-09T11:03:40;5.63;;;1.73;;
64598;SDS011;51008;51.504;11.548;2022-09-09T11:08:42;7.20;;;1.60;;
64598;SDS011;51008;51.504;11.548;2022-09-09T11:13:53;4.25;;;1.33;;
64598;SDS011;51008;51.504;11.548;2022-09-09T11:19:00;7.20;;;2.03;;
64598;SDS011;51008;51.504;11.548;2022-09-09T11:24:08;7.45;;;1.80;;
64598;SDS011;51008;51.504;11.548;2022-09-09T11:29:21;7.25;;;1.77;;
64598;SDS011;51008;51.504;11.548;2022-09-09T11:34:52;6.68;;;1.50;;
64598;SDS011;51008;51.504;11.548;2022-09-09T11:40:26;6.22;;;1.65;;
64598;SDS011;51008;51.504;11.548;2022-09-09T11:45:28;8.88;;;1.52;;
64598;SDS011;51008;51.504;11.548;2022-09-09T11:50:34;5.95;;;1.77;;
64598;SDS011;51008;51.504;11.548;2022-09-09T11:55:36;6.35;;;1.50;;
64598;SDS011;51008;51.504;11.548;2022-09-09T12:00:39;4.28;;;1.60;;
64598;SDS011;51008;51.504;11.548;2022-09-09T12:05:42;11.75;;;1.65;;
64598;SDS011;51008;51.504;11.548;2022-09-09T12:10:53;6.28;;;1.48;;
64598;SDS011;51008;51.504;11.548;2022-09-09T12:15:59;4.23;;;1.73;;
64598;SDS011;51008;51.504;11.548;2022-09-09T12:21:06;12.48;;;1.73;;
64598;SDS011;51008;51.504;11.548;2022-09-09T12:26:37;5.75;;;1.10;;
64598;SDS011;51008;51.504;11.548;2022-09-09T12:31:51;7.10;;;1.67;;
64598;SDS011;51008;51.504;11.548;2022-09-09T12:37:02;8.02;;;1.35;;
64598;SDS011;51008;51.504;11.548;2022-09-09T12:42:15;9.50;;;1.85;;
64598;SDS011;51008;51.504;11.548;2022-09-09T12:47:17;4.63;;;1.30;;
64598;SDS011;51008;51.504;11.548;2022-09-09T12:52:31;4.43;;;1.40;;
64598;SDS011;51008;51.504;11.548;2022-09-09T12:57:35;5.65;;;1.38;;
64598;SDS011;51008;51.504;11.548;2022-09-09T13:02:45;4.93;;;1.40;;
64598;SDS011;51008;51.504;11.548;2022-09-09T13:07:51;5.50;;;1.55;;
64598;SDS011;51008;51.504;11.548;2022-09-09T13:12:52;4.53;;;1.40;;
64598;SDS011;51008;51.504;11.548;2022-09-09T13:17:54;7.47;;;1.33;;
64598;SDS011;51008;51.504;11.548;2022-09-09T13:22:57;6.45;;;1.42;;
64598;SDS011;51008;51.504;11.548;2022-09-09T13:27:59;4.90;;;1.30;;
64598;SDS011;51008;51.504;11.548;2022-09-09T13:33:06;6.85;;;1.98;;
64598;SDS011;51008;51.504;11.548;2022-09-09T13:38:10;3.70;;;1.35;;
64598;SDS011;51008;51.504;11.548;2022-09-09T13:43:17;6.57;;;1.52;;
64598;SDS011;51008;51.504;11.548;2022-09-09T13:48:22;8.25;;;2.20;;
64598;SDS011;51008;51.504;11.548;2022-09-09T13:53:24;5.38;;;1.48;;
64598;SDS011;51008;51.504;11.548;2022-09-09T13:58:25;7.78;;;1.80;;
64598;SDS011;51008;51.504;11.548;2022-09-09T14:03:26;8.38;;;1.45;;
64598;SDS011;51008;51.504;11.548;2022-09-09T14:08:27;5.70;;;1.40;;
64598;SDS011;51008;51.504;11.548;2022-09-09T14:13:28;5.22;;;1.20;;
64598;SDS011;51008;51.504;11.548;2022-09-09T14:18:30;5.90;;;1.17;;
64598;SDS011;51008;51.504;11.548;2022-09-09T14:23:31;3.03;;;1.00;;
64598;SDS011;51008;51.504;11.548;2022-09-09T14:28:33;3.20;;;0.80;;
64598;SDS011;51008;51.504;11.548;2022-09-09T14:33:35;3.92;;;1.10;;
64598;SDS011;51008;51.504;11.548;2022-09-09T14:38:37;1.80;;;0.50;;
64598;SDS011;51008;51.504;11.548;2022-09-09T14:43:58;1.83;;;0.82;;
64598;SDS011;51008;51.504;11.548;2022-09-09T14:48:59;3.72;;;1.00;;
64598;SDS011;51008;51.504;11.548;2022-09-09T14:54:01;1.65;;;0.90;;
64598;SDS011;51008;51.504;11.548;2022-09-09T14:59:02;3.03;;;1.10;;
64598;SDS011;51008;51.504;11.548;2022-09-09T15:04:04;3.85;;;1.00;;
64598;SDS011;51008;51.504;11.548;2022-09-09T15:09:06;2.88;;;0.90;;
64598;SDS011;51008;51.504;11.548;2022-09-09T15:14:07;7.40;;;1.25;;
64598;SDS011;51008;51.504;11.548;2022-09-09T15:19:09;4.50;;;1.30;;
64598;SDS011;51008;51.504;11.548;2022-09-09T15:24:10;5.22;;;1.15;;
64598;SDS011;51008;51.504;11.548;2022-09-09T15:29:11;4.93;;;1.20;;
64598;SDS011;51008;51.504;11.548;2022-09-09T15:34:12;5.97;;;1.27;;
64598;SDS011;51008;51.504;11.548;2022-09-09T15:39:14;4.53;;;1.00;;
64598;SDS011;51008;51.504;11.548;2022-09-09T15:44:17;3.05;;;0.90;;
64598;SDS011;51008;51.504;11.548;2022-09-09T15:49:19;1.88;;;0.90;;
64598;SDS011;51008;51.504;11.548;2022-09-09T15:54:22;5.53;;;1.05;;
64598;SDS011;51008;51.504;11.548;2022-09-09T15:59:24;7.10;;;1.00;;
64598;SDS011;51008;51.504;11.548;2022-09-09T16:04:27;3.25;;;1.00;;
64598;SDS011;51008;51.504;11.548;2022-09-09T16:09:29;2.63;;;0.75;;
64598;SDS011;51008;51.504;11.548;2022-09-09T16:14:30;3.67;;;1.10;;
64598;SDS011;51008;51.504;11.548;2022-09-09T16:19:31;3.42;;;0.90;;
64598;SDS011;51008;51.504;11.548;2022-09-09T16:24:33;3.60;;;1.15;;
64598;SDS011;51008;51.504;11.548;2022-09-09T16:29:34;4.00;;;0.88;;
64598;SDS011;51008;51.504;11.548;2022-09-09T16:34:35;3.67;;;1.20;;
64598;SDS011;51008;51.504;11.548;2022-09-09T16:39:36;4.57;;;1.10;;
64598;SDS011;51008;51.504;11.548;2022-09-09T16:44:37;5.18;;;1.15;;
64598;SDS011;51008;51.504;11.548;2022-09-09T16:49:38;4.05;;;1.00;;
64598;SDS011;51008;51.504;11.548;2022-09-09T16:54:39;3.08;;;0.80;;
64598;SDS011;51008;51.504;11.548;2022-09-09T16:59:42;3.65;;;0.80;;
64598;SDS011;51008;51.504;11.548;2022-09-09T17:04:43;3.50;;;1.08;;
64598;SDS011;51008;51.504;11.548;2022-09-09T17:09:44;2.83;;;1.00;;
64598;SDS011;51008;51.504;11.548;2022-09-09T17:14:45;4.05;;;0.98;;
64598;SDS011;51008;51.504;11.548;2022-09-09T17:19:46;6.45;;;1.20;;
64598;SDS011;51008;51.504;11.548;2022-09-09T17:24:47;5.60;;;1.17;;
64598;SDS011;51008;51.504;11.548;2022-09-09T17:29:48;2.78;;;1.05;;
64598;SDS011;51008;51.504;11.548;2022-09-09T17:34:49;5.63;;;1.35;;
64598;SDS011;51008;51.504;11.548;2022-09-09T17:39:50;5.57;;;1.45;;
64598;SDS011;51008;51.504;11.548;2022-09-09T17:44:51;4.68;;;1.00;;
64598;SDS011;51008;51.504;11.548;2022-09-09T17:49:52;6.22;;;1.10;;
64598;SDS011;51008;51.504;11.548;2022-09-09T17:54:53;3.35;;;1.10;;
64598;SDS011;51008;51.504;11.548;2022-09-09T17:59:54;3.20;;;0.90;;
64598;SDS011;51008;51.504;11.548;2022-09-09T18:04:55;6.22;;;1.20;;
64598;SDS011;51008;51.504;11.548;2022-09-09T18:09:56;3.55;;;1.20;;
64598;SDS011;51008;51.504;11.548;2022-09-09T18:14:56;3.75;;;1.02;;
64598;SDS011;51008;51.504;11.548;2022-09-09T18:28:38;6.82;;;1.50;;
64598;SDS011;51008;51.504;11.548;2022-09-09T18:33:41;3.50;;;1.35;;
64598;SDS011;51008;51.504;11.548;2022-09-09T18:38:43;4.63;;;1.33;;
64598;SDS011;51008;51.504;11.548;2022-09-09T18:43:45;3.45;;;1.50;;
64598;SDS011;51008;51.504;11.548;2022-09-09T18:48:46;5.75;;;1.35;;
64598;SDS011;51008;51.504;11.548;2022-09-09T18:53:49;5.33;;;1.10;;
64598;SDS011;51008;51.504;11.548;2022-09-09T18:58:52;6.10;;;1.10;;
64598;SDS011;51008;51.504;11.548;2022-09-09T19:03:54;3.92;;;1.10;;
64598;SDS011;51008;51.504;11.548;2022-09-09T19:08:56;5.97;;;1.20;;
64598;SDS011;51008;51.504;11.548;2022-09-09T19:13:59;4.28;;;1.10;;
64598;SDS011;51008;51.504;11.548;2022-09-09T19:24:11;4.65;;;1.25;;
64598;SDS011;51008;51.504;11.548;2022-09-09T19:29:15;9.50;;;1.48;;
64598;SDS011;51008;51.504;11.548;2022-09-09T19:34:20;5.88;;;1.42;;
64598;SDS011;51008;51.504;11.548;2022-09-09T19:39:21;2.45;;;1.00;;
64598;SDS011;51008;51.504;11.548;2022-09-09T19:44:22;5.93;;;1.25;;
64598;SDS011;51008;51.504;11.548;2022-09-09T19:49:29;6.25;;;1.20;;
64598;SDS011;51008;51.504;11.548;2022-09-09T19:54:30;7.57;;;1.35;;
64598;SDS011;51008;51.504;11.548;2022-09-09T19:59:32;4.05;;;1.20;;
64598;SDS011;51008;51.504;11.548;2022-09-09T20:04:32;5.60;;;1.40;;
64598;SDS011;51008;51.504;11.548;2022-09-09T20:09:34;6.53;;;1.75;;
64598;SDS011;51008;51.504;11.548;2022-09-09T20:14:34;6.50;;;1.52;;
64598;SDS011;51008;51.504;11.548;2022-09-09T20:19:35;6.00;;;1.60;;
64598;SDS011;51008;51.504;11.548;2022-09-09T20:24:36;5.30;;;1.42;;
64598;SDS011;51008;51.504;11.548;2022-09-09T20:29:37;4.07;;;1.23;;
64598;SDS011;51008;51.504;11.548;2022-09-09T20:34:38;3.85;;;1.38;;
64598;SDS011;51008;51.504;11.548;2022-09-09T20:39:39;5.63;;;1.52;;
64598;SDS011;51008;51.504;11.548;2022-09-09T20:44:40;6.93;;;1.58;;
64598;SDS011;51008;51.504;11.548;2022-09-09T20:49:41;7.07;;;1.70;;
64598;SDS011;51008;51.504;11.548;2022-09-09T20:54:42;6.18;;;1.50;;
64598;SDS011;51008;51.504;11.548;2022-09-09T20:59:43;7.55;;;1.80;;
64598;SDS011;51008;51.504;11.548;2022-09-09T21:04:44;3.85;;;1.40;;
64598;SDS011;51008;51.504;11.548;2022-09-09T21:09:44;8.43;;;1.70;;
64598;SDS011;51008;51.504;11.548;2022-09-09T21:14:45;5.85;;;1.48;;
64598;SDS011;51008;51.504;11.548;2022-09-09T21:19:46;10.05;;;1.38;;
64598;SDS011;51008;51.504;11.548;2022-09-09T21:24:47;7.35;;;1.50;;
64598;SDS011;51008;51.504;11.548;2022-09-09T21:29:48;5.05;;;1.50;;
64598;SDS011;51008;51.504;11.548;2022-09-09T21:34:49;6.90;;;1.73;;
64598;SDS011;51008;51.504;11.548;2022-09-09T21:39:50;3.80;;;1.45;;
64598;SDS011;51008;51.504;11.548;2022-09-09T21:44:51;6.88;;;1.75;;
64598;SDS011;51008;51.504;11.548;2022-09-09T21:49:52;5.15;;;1.40;;
64598;SDS011;51008;51.504;11.548;2022-09-09T21:54:53;6.32;;;1.60;;
64598;SDS011;51008;51.504;11.548;2022-09-09T21:59:53;4.97;;;1.30;;
64598;SDS011;51008;51.504;11.548;2022-09-09T22:04:55;6.07;;;1.50;;
64598;SDS011;51008;51.504;11.548;2022-09-09T22:09:55;5.05;;;1.50;;
64598;SDS011;51008;51.504;11.548;2022-09-09T22:14:56;4.55;;;1.40;;
64598;SDS011;51008;51.504;11.548;2022-09-09T22:19:57;3.63;;;1.20;;
64598;SDS011;51008;51.504;11.548;2022-09-09T22:24:58;5.78;;;1.42;;
64598;SDS011;51008;51.504;11.548;2022-09-09T22:29:59;5.25;;;1.50;;
64598;SDS011;51008;51.504;11.548;2022-09-09T22:35:00;5.80;;;1.60;;
64598;SDS011;51008;51.504;11.548;2022-09-09T22:40:02;5.32;;;1.50;;
64598;SDS011;51008;51.504;11.548;2022-09-09T22:45:03;6.80;;;1.70;;
64598;SDS011;51008;51.504;11.548;2022-09-09T22:50:05;7.03;;;1.60;;
64598;SDS011;51008;51.504;11.548;2022-09-09T22:55:06;3.55;;;1.30;;
64598;SDS011;51008;51.504;11.548;2022-09-09T23:00:08;5.47;;;1.42;;
64598;SDS011;51008;51.504;11.548;2022-09-09T23:05:09;6.40;;;1.58;;
64598;SDS011;51008;51.504;11.548;2022-09-09T23:10:10;7.85;;;2.10;;
64598;SDS011;51008;51.504;11.548;2022-09-09T23:15:11;4.85;;;1.65;;
64598;SDS011;51008;51.504;11.548;2022-09-09T23:20:12;5.10;;;1.73;;
64598;SDS011;51008;51.504;11.548;2022-09-09T23:25:13;7.55;;;1.73;;
64598;SDS011;51008;51.504;11.548;2022-09-09T23:30:14;3.65;;;1.45;;
64598;SDS011;51008;51.504;11.548;2022-09-09T23:35:15;7.60;;;1.90;;
64598;SDS011;51008;51.504;11.548;2022-09-09T23:40:16;7.25;;;2.03;;
64598;SDS011;51008;51.504;11.548;2022-09-09T23:45:17;6.22;;;2.05;;
64598;SDS011;51008;51.504;11.548;2022-09-09T23:50:18;6.10;;;2.15;;
64598;SDS011;51008;51.504;11.548;2022-09-09T23:55:19;5.88;;;1.83;;
